Time;durP1;ratioP1;P1;durP2;ratioP2;P2;SDS_P1;SDS_P2;PMS_P1;PMS_P2;Temp;Humidity;BMP_temperature;BMP_pressure;BME280_temperature;BME280_humidity;BME280_pressure;Samples;Min_cycle;Max_cycle;Signal;HPM_P1;HPM_P2
2022/01/25 00:33:31;;;;;;;15.07;6.38;;;;;;;2.89;83.63;102052.16;5096575;28;20032;-74
2022/01/25 00:35:57;;;;;;;18.40;6.63;;;;;;;2.90;83.54;102038.75;5096243;28;20024;-74
2022/01/25 00:38:24;;;;;;;18.42;7.50;;;;;;;2.88;83.58;102048.66;5096220;28;20028;-74
2022/01/25 00:40:50;;;;;;;17.17;7.70;;;;;;;2.95;83.77;102051.72;5096193;28;20074;-74
2022/01/25 00:43:15;;;;;;;19.80;7.28;;;;;;;2.82;84.10;102040.31;5096717;28;20478;-74
2022/01/25 00:45:41;;;;;;;17.42;7.22;;;;;;;2.67;83.81;102048.47;5096376;28;20043;-74
2022/01/25 00:48:08;;;;;;;16.92;6.95;;;;;;;2.54;84.26;102044.16;5096331;28;20382;-74
2022/01/25 00:50:41;;;;;;;21.42;7.95;;;;;;;2.60;83.99;102041.03;5096524;28;20118;-74
2022/01/25 00:55:34;;;;;;;19.42;6.95;;;;;;;2.59;83.22;102040.19;5096294;28;20028;-74
2022/01/25 00:58:00;;;;;;;17.92;6.65;;;;;;;2.62;83.55;102041.78;5096032;28;20160;-74
2022/01/25 01:00:27;;;;;;;17.10;6.85;;;;;;;2.77;83.12;102035.31;5095728;28;20032;-74
2022/01/25 01:02:54;;;;;;;14.90;5.55;;;;;;;2.58;83.16;102043.81;5096241;28;20032;-74
2022/01/25 01:05:19;;;;;;;16.13;6.32;;;;;;;2.56;83.34;102036.91;5096396;28;20378;-74
2022/01/25 01:07:45;;;;;;;15.20;7.07;;;;;;;2.53;83.71;102040.63;5096376;28;20040;-74
2022/01/25 01:10:14;;;;;;;15.23;5.85;;;;;;;2.50;83.88;102029.41;5095714;28;20062;-74
2022/01/25 01:13:16;;;;;;;16.67;6.25;;;;;;;2.73;83.15;102037.34;5095627;28;20036;-74
2022/01/25 01:15:39;;;;;;;13.98;6.70;;;;;;;2.86;83.06;102036.44;5095327;28;20114;-74
2022/01/25 01:29:20;;;;;;;16.17;7.20;;;;;;;2.75;82.93;102029.25;5095491;28;20444;-74
2022/01/25 01:36:01;;;;;;;17.48;6.95;;;;;;;2.62;83.80;102023.16;5078848;28;20036;-74
2022/01/25 01:48:00;;;;;;;21.75;7.63;;;;;;;2.62;84.16;102018.69;5094789;28;20016;-74
2022/01/25 01:50:31;;;;;;;19.55;6.70;;;;;;;2.68;84.36;102025.38;5095577;28;20036;-74
2022/01/25 01:52:57;;;;;;;16.67;6.72;;;;;;;2.56;83.98;102026.25;5095285;28;20063;-74
2022/01/25 01:55:25;;;;;;;14.15;6.60;;;;;;;2.62;83.77;102028.47;5094737;28;20473;-74
2022/01/25 01:57:50;;;;;;;14.88;6.22;;;;;;;2.75;83.73;102027.44;5093391;28;20479;-74
2022/01/25 02:00:18;;;;;;;17.63;6.82;;;;;;;2.60;84.41;102027.75;5095263;28;20059;-74
2022/01/25 02:02:44;;;;;;;19.60;7.97;;;;;;;2.78;83.35;102021.88;5094969;28;20043;-74
2022/01/25 02:05:09;;;;;;;17.85;7.28;;;;;;;2.58;84.42;102019.88;5094851;28;20386;-74
2022/01/25 02:07:35;;;;;;;19.90;7.68;;;;;;;2.51;84.94;102028.44;5094978;28;20035;-74
2022/01/25 02:10:01;;;;;;;15.00;6.55;;;;;;;2.53;84.44;102027.34;5094967;28;20089;-74
2022/01/25 02:12:27;;;;;;;18.33;8.10;;;;;;;2.66;84.41;102032.63;5093319;28;20032;-74
2022/01/25 02:14:54;;;;;;;16.73;7.47;;;;;;;2.63;83.83;102024.84;5094585;28;20040;-74
2022/01/25 02:22:55;;;;;;;18.15;7.60;;;;;;;2.61;84.03;102021.47;5094053;28;20050;-74
2022/01/25 02:25:21;;;;;;;15.95;7.05;;;;;;;2.46;84.42;102019.94;5094028;28;20024;-74
2022/01/25 02:27:47;;;;;;;17.25;6.78;;;;;;;2.83;83.22;102010.91;5094668;28;20467;-74
2022/01/25 02:30:12;;;;;;;19.33;7.53;;;;;;;2.90;83.09;102008.59;5094437;28;20055;-74
2022/01/25 02:32:38;;;;;;;17.70;7.18;;;;;;;2.88;82.61;102006.06;5094298;28;20074;-74
2022/01/25 02:35:05;;;;;;;17.15;7.50;;;;;;;2.73;83.61;102004.56;5094170;28;20452;-74
2022/01/25 02:37:31;;;;;;;15.98;6.68;;;;;;;2.59;83.42;101996.78;5094182;28;20032;-75
2022/01/25 02:39:57;;;;;;;19.42;7.88;;;;;;;2.73;83.52;102001.91;5094168;28;20081;-74
2022/01/25 02:42:23;;;;;;;18.35;6.90;;;;;;;2.67;84.04;102002.38;5093960;28;20031;-74
2022/01/25 02:44:49;;;;;;;19.02;7.95;;;;;;;2.71;83.15;102001.16;5092738;28;20046;-74
2022/01/25 02:49:58;;;;;;;18.30;7.20;;;;;;;2.77;83.25;102008.69;5093641;28;20039;-74
2022/01/25 02:52:24;;;;;;;21.38;8.15;;;;;;;2.73;83.58;102001.91;5094059;28;20032;-74
2022/01/25 02:54:50;;;;;;;20.02;7.75;;;;;;;2.78;82.77;102003.25;5093889;28;20436;-74
2022/01/25 02:57:16;;;;;;;19.25;6.68;;;;;;;2.78;82.78;102003.25;5093785;28;20432;-74
2022/01/25 02:59:41;;;;;;;22.35;7.60;;;;;;;2.71;83.60;102006.47;5093513;28;20048;-74
2022/01/25 03:02:07;;;;;;;19.83;7.25;;;;;;;2.61;84.10;102001.03;5093464;28;20028;-74
2022/01/25 03:04:32;;;;;;;19.05;7.32;;;;;;;2.56;84.49;101997.00;5092463;28;20024;-74
2022/01/25 03:06:58;;;;;;;19.73;7.32;;;;;;;2.55;84.96;101990.81;5093665;28;20107;-74
2022/01/25 03:09:24;;;;;;;17.45;6.93;;;;;;;2.56;84.13;101995.19;5093741;28;20044;-74
2022/01/25 03:11:52;;;;;;;22.38;7.53;;;;;;;2.51;84.60;101993.84;5093407;28;20466;-74
2022/01/25 03:14:20;;;;;;;16.15;6.47;;;;;;;2.54;84.88;101998.91;5093626;28;20112;-74
2022/01/25 03:17:03;;;;;;;18.13;7.05;;;;;;;2.66;83.76;101992.69;5093725;28;20024;-74
2022/01/25 03:21:57;;;;;;;20.65;7.43;;;;;;;2.58;84.71;101997.72;5093374;28;20039;-74
2022/01/25 03:24:22;;;;;;;20.80;7.35;;;;;;;2.60;83.78;101998.47;5092174;28;20056;-75
2022/01/25 03:26:48;;;;;;;17.60;7.07;;;;;;;2.63;83.95;101995.59;5092264;28;20109;-74
2022/01/25 03:29:13;;;;;;;17.88;7.20;;;;;;;2.58;83.77;101998.59;5092017;28;20065;-74
2022/01/25 03:31:38;;;;;;;19.83;6.72;;;;;;;2.53;83.80;101997.22;5093384;28;20032;-74
2022/01/25 03:34:04;;;;;;;15.98;5.80;;;;;;;2.66;83.30;101993.53;5093144;28;20050;-74
2022/01/25 03:36:30;;;;;;;21.50;7.18;;;;;;;2.56;83.51;101997.84;5093201;28;20031;-74
2022/01/25 03:38:55;;;;;;;19.05;7.43;;;;;;;2.51;84.45;101996.50;5093318;28;20032;-74
2022/01/25 03:41:23;;;;;;;21.73;8.32;;;;;;;2.50;84.52;101993.00;5091810;28;20111;-74
2022/01/25 03:43:53;;;;;;;19.02;7.07;;;;;;;2.41;83.83;101997.19;5092900;28;20030;-74
2022/01/25 03:46:29;;;;;;;20.08;7.63;;;;;;;2.47;83.84;101985.25;5091985;28;20519;-74
2022/01/25 03:51:39;;;;;;;22.38;7.82;;;;;;;2.50;84.83;101981.50;5093188;28;20047;-74
2022/01/25 03:54:05;;;;;;;23.95;8.25;;;;;;;2.60;84.15;101977.19;5093162;28;20036;-74
2022/01/25 03:56:30;;;;;;;19.00;7.00;;;;;;;2.40;84.13;101976.84;5093070;28;20414;-74
2022/01/25 03:58:56;;;;;;;22.30;9.15;;;;;;;2.71;83.21;101967.41;5093505;28;20048;-74
2022/01/25 04:01:22;;;;;;;18.95;8.65;;;;;;;2.59;83.56;101975.47;5093310;28;20086;-74
2022/01/25 04:04:23;;;;;;;18.67;7.53;;;;;;;2.71;83.49;101974.53;5097099;28;20390;-74
2022/01/25 04:06:43;;;;;;;18.58;7.70;;;;;;;2.66;83.83;101976.72;5094481;28;20077;-74
2022/01/25 04:09:09;;;;;;;21.70;7.70;;;;;;;2.52;84.09;101976.91;5096999;28;20028;-74
2022/01/25 04:11:36;;;;;;;20.33;7.70;;;;;;;2.74;82.78;101979.63;5096738;28;20375;-74
2022/01/25 04:14:03;;;;;;;17.88;7.13;;;;;;;2.56;83.47;101979.22;5096778;28;20047;-74
2022/01/25 04:16:34;;;;;;;21.08;7.97;;;;;;;2.51;84.35;101984.03;5096838;28;20112;-74
2022/01/25 04:19:06;;;;;;;22.90;8.13;;;;;;;2.53;83.85;101976.78;5096888;28;20463;-74
2022/01/25 04:26:45;;;;;;;18.50;6.80;;;;;;;2.56;83.58;101960.59;5096526;28;20039;-74
2022/01/25 04:29:10;;;;;;;22.27;7.97;;;;;;;2.48;83.64;101964.81;5095391;28;20028;-74
2022/01/25 04:31:37;;;;;;;21.23;7.45;;;;;;;2.50;84.00;101970.88;5096394;28;20254;-74
2022/01/25 04:35:09;;;;;;;18.80;7.60;;;;;;;2.50;83.89;101962.88;5096294;28;20089;-74
2022/01/25 04:50:53;;;;;;;18.60;6.25;;;;;;;2.54;84.30;101967.00;5096470;28;20499;-73
2022/01/25 04:53:37;;;;;;;19.48;6.68;;;;;;;2.57;83.53;101962.28;5096131;28;20064;-74
2022/01/25 04:56:14;;;;;;;22.38;6.72;;;;;;;2.48;83.56;101967.47;5095886;28;20084;-73
2022/01/25 04:58:58;;;;;;;21.60;7.57;;;;;;;2.60;83.58;101967.38;5095764;28;20044;-74
2022/01/25 05:01:24;;;;;;;22.35;6.57;;;;;;;2.41;83.07;101964.41;5094859;28;20515;-74
2022/01/25 05:06:22;;;;;;;20.05;7.65;;;;;;;2.51;82.72;101970.72;5096065;28;20040;-73
2022/01/25 05:08:52;;;;;;;21.23;7.15;;;;;;;2.51;82.47;101967.25;5096119;28;20035;-74
2022/01/25 05:11:33;;;;;;;19.00;7.03;;;;;;;2.33;83.79;101964.97;5095836;28;20028;-74
2022/01/25 05:16:36;;;;;;;15.80;6.33;;;;;;;2.46;82.81;101969.41;5095792;28;20043;-74
2022/01/25 05:22:19;;;;;;;18.20;6.70;;;;;;;2.24;83.77;101967.47;5095599;28;20035;-74
2022/01/25 05:24:46;;;;;;;20.50;7.47;;;;;;;2.19;84.21;101962.47;5094383;28;20394;-75
2022/01/25 05:27:14;;;;;;;22.48;8.27;;;;;;;2.22;84.43;101969.41;5095538;28;20032;-75
2022/01/25 05:29:39;;;;;;;24.17;7.80;;;;;;;2.30;83.56;101975.00;5095164;28;20032;-75
2022/01/25 05:32:05;;;;;;;20.58;7.63;;;;;;;2.39;83.25;101975.16;5095661;28;20054;-74
2022/01/25 05:34:31;;;;;;;;;;;;;;;2.16;83.44;101977.81;5095378;28;20028;-75
2022/01/25 05:36:56;;;;;;;23.02;7.05;;;;;;;2.13;83.96;101970.94;5095386;28;19908;-75
2022/01/25 05:39:29;;;;;;;20.35;6.75;;;;;;;2.10;84.56;101968.50;5095610;28;20050;-75
2022/01/25 05:42:13;;;;;;;20.33;7.90;;;;;;;2.12;84.50;101965.72;5095528;28;20119;-75
2022/01/25 05:47:08;;;;;;;20.20;7.93;;;;;;;2.12;84.00;101963.91;5095184;28;20047;-75
2022/01/25 05:49:36;;;;;;;18.20;6.53;;;;;;;2.18;84.48;101959.94;5095011;28;20032;-75
2022/01/25 05:52:04;;;;;;;22.83;8.05;;;;;;;2.16;84.16;101962.72;5094868;28;20039;-75
2022/01/25 05:54:30;;;;;;;20.75;7.68;;;;;;;2.27;83.82;101954.81;5095095;28;20036;-75
2022/01/25 05:56:55;;;;;;;14.98;6.05;;;;;;;2.21;83.54;101955.25;5095159;28;20107;-75
2022/01/25 05:59:21;;;;;;;19.98;7.35;;;;;;;1.98;84.31;101950.75;5094991;28;20044;-75
2022/01/25 06:01:46;;;;;;;20.13;7.20;;;;;;;2.02;84.40;101958.41;5094835;28;20062;-75
2022/01/25 06:04:12;;;;;;;18.35;6.78;;;;;;;1.98;84.66;101953.41;5094840;28;20020;-75
2022/01/25 06:06:37;;;;;;;14.23;5.70;;;;;;;1.95;84.59;101956.31;5094887;28;20438;-75
2022/01/25 06:09:03;;;;;;;20.48;6.70;;;;;;;2.27;82.95;101962.78;5094551;28;20032;-75
2022/01/25 06:11:28;;;;;;;16.58;6.22;;;;;;;2.31;83.42;101966.06;5093291;28;20078;-75
2022/01/25 06:13:53;;;;;;;16.93;7.73;;;;;;;2.08;84.04;101963.28;5093349;28;20466;-75
2022/01/25 06:16:19;;;;;;;20.85;7.55;;;;;;;2.06;83.30;101961.69;5094395;28;20105;-75
2022/01/25 06:18:45;;;;;;;19.50;6.63;;;;;;;2.20;83.40;101958.00;5093320;28;20036;-75
2022/01/25 06:21:10;;;;;;;18.75;6.68;;;;;;;2.08;84.01;101963.28;5094077;28;20262;-75
2022/01/25 06:23:36;;;;;;;18.48;6.82;;;;;;;2.18;83.60;101967.91;5094421;28;20024;-75
2022/01/25 06:26:02;;;;;;;25.38;7.43;;;;;;;1.98;83.73;101961.41;5093693;28;20124;-75
2022/01/25 06:28:27;;;;;;;24.38;7.43;;;;;;;2.15;83.82;101962.84;5094074;28;20089;-75
2022/01/25 06:30:53;;;;;;;17.58;6.53;;;;;;;2.20;83.78;101960.69;5094427;28;20035;-75
2022/01/25 06:33:18;;;;;;;20.90;7.05;;;;;;;2.18;83.47;101962.59;5094090;28;20040;-75
2022/01/25 06:35:46;;;;;;;27.08;7.35;;;;;;;2.24;83.65;101957.69;5092800;28;20482;-75
2022/01/25 06:38:12;;;;;;;19.40;7.43;;;;;;;2.25;83.44;101954.06;5094204;28;20059;-75
2022/01/25 06:40:37;;;;;;;22.13;7.18;;;;;;;2.20;83.08;101952.69;5093927;28;20471;-75
2022/01/25 06:43:03;;;;;;;18.37;7.90;;;;;;;2.33;82.92;101961.50;5094363;28;20034;-75
2022/01/25 06:45:28;;;;;;;18.98;7.50;;;;;;;2.26;82.94;101957.56;5093769;28;20246;-75
2022/01/25 06:47:54;;;;;;;26.65;8.02;;;;;;;2.27;82.99;101962.78;5093867;28;20039;-75
2022/01/25 06:50:23;;;;;;;22.67;8.70;;;;;;;2.29;83.16;101960.84;5092624;28;20050;-75
2022/01/25 06:52:48;;;;;;;21.75;7.25;;;;;;;2.32;83.25;101963.28;5094152;28;20050;-75
2022/01/25 06:55:16;;;;;;;19.55;8.40;;;;;;;2.46;82.96;101967.59;5092749;28;20394;-75
2022/01/25 06:57:42;;;;;;;22.30;8.13;;;;;;;2.37;83.02;101971.75;5093690;28;20052;-75
2022/01/25 07:00:13;;;;;;;23.45;8.77;;;;;;;2.26;82.94;101973.53;5093958;28;20054;-75
2022/01/25 07:02:38;;;;;;;22.02;8.52;;;;;;;2.15;82.94;101963.66;5091856;28;20031;-75
2022/01/25 07:05:05;;;;;;;19.45;7.45;;;;;;;2.41;82.23;101969.72;5093599;28;20048;-75
2022/01/25 07:07:31;;;;;;;21.90;7.32;;;;;;;2.24;83.09;101970.97;5092513;28;20032;-75
2022/01/25 07:09:57;;;;;;;23.33;7.57;;;;;;;2.18;83.03;101974.09;5093743;28;20038;-76
2022/01/25 07:12:23;;;;;;;;;;;;;;;2.23;83.02;101979.06;5093867;28;20462;-76
2022/01/25 07:14:49;;;;;;;20.60;7.75;;;;;;;2.13;83.30;101978.91;5093408;28;19914;-76
2022/01/25 07:17:14;;;;;;;20.08;7.55;;;;;;;2.11;83.65;101975.50;5093829;28;20036;-75
2022/01/25 07:19:40;;;;;;;26.30;8.57;;;;;;;2.27;82.90;101967.25;5093568;28;20032;-75
2022/01/25 07:22:06;;;;;;;29.88;8.13;;;;;;;2.41;82.68;101970.56;5093584;28;20031;-75
2022/01/25 07:24:31;;;;;;;19.63;7.80;;;;;;;2.24;83.16;101972.78;5093251;28;20193;-75
2022/01/25 07:26:57;;;;;;;24.98;8.40;;;;;;;2.26;82.87;101965.56;5093349;28;20108;-75
2022/01/25 07:29:22;;;;;;;22.45;8.15;;;;;;;2.13;83.62;101952.31;5093604;28;20110;-75
2022/01/25 07:31:48;;;;;;;23.40;8.18;;;;;;;2.19;83.05;101965.16;5093451;28;20036;-75
2022/01/25 07:34:14;;;;;;;23.77;8.63;;;;;;;2.31;82.68;101971.38;5093592;28;20024;-75
2022/01/25 07:36:42;;;;;;;23.90;9.40;;;;;;;2.28;82.87;101963.63;5092395;28;20111;-76
2022/01/25 07:39:07;;;;;;;21.95;7.78;;;;;;;2.24;83.10;101963.00;5093522;28;20059;-75
2022/01/25 07:41:33;;;;;;;23.65;7.82;;;;;;;2.36;82.17;101970.06;5093602;28;20117;-75
2022/01/25 07:43:59;;;;;;;20.53;7.40;;;;;;;2.13;82.74;101978.91;5092413;28;20129;-75
2022/01/25 07:46:25;;;;;;;21.38;8.18;;;;;;;2.19;82.97;101977.59;5093658;28;20678;-75
2022/01/25 07:48:51;;;;;;;;;;;;;;;2.19;82.28;101972.28;5094214;28;20059;-75
2022/01/25 07:51:16;;;;;;;23.27;7.80;;;;;;;2.12;83.20;101971.91;5092863;28;19915;-75
2022/01/25 07:53:43;;;;;;;22.55;9.25;;;;;;;2.22;83.03;101977.38;5093078;28;20032;-76
2022/01/25 07:56:09;;;;;;;27.48;8.27;;;;;;;2.21;82.51;101979.19;5093133;28;20063;-75
2022/01/25 07:58:34;;;;;;;26.42;8.73;;;;;;;2.37;82.29;101974.41;5093654;28;20142;-75
2022/01/25 08:00:59;;;;;;;23.38;8.82;;;;;;;2.32;82.37;101979.25;5093391;28;20084;-75
2022/01/25 08:03:25;;;;;;;26.17;9.10;;;;;;;2.34;82.34;101976.44;5091969;28;20036;-75
2022/01/25 08:05:50;;;;;;;21.25;7.90;;;;;;;2.38;81.77;101983.25;5093381;28;20300;-75
2022/01/25 08:08:17;;;;;;;32.22;9.13;;;;;;;2.33;82.48;101980.09;5093303;28;20032;-76
2022/01/25 08:10:42;;;;;;;23.35;8.27;;;;;;;2.31;82.60;101993.53;5092796;28;20083;-75
2022/01/25 08:13:08;;;;;;;20.35;8.25;;;;;;;2.16;82.82;101988.44;5093158;28;20115;-75
2022/01/25 08:15:34;;;;;;;25.55;9.73;;;;;;;2.23;82.83;101982.59;5093295;28;20239;-75
2022/01/25 08:17:59;;;;;;;23.23;8.98;;;;;;;2.43;81.80;101975.78;5092961;28;20459;-75
2022/01/25 08:20:24;;;;;;;19.88;8.40;;;;;;;2.18;83.10;101983.88;5092002;28;20039;-76
2022/01/25 08:22:50;;;;;;;18.65;7.03;;;;;;;2.17;82.67;101985.69;5093228;28;20028;-76
2022/01/25 08:25:16;;;;;;;;;;;;;;;2.40;81.75;101987.50;5092235;28;20024;-75
2022/01/25 08:27:42;;;;;;;26.75;9.02;;;;;;;2.31;82.67;101988.19;5093053;28;19908;-76
2022/01/25 08:30:08;;;;;;;28.60;9.35;;;;;;;2.31;83.14;101980.22;5093571;28;20089;-76
2022/01/25 08:32:34;;;;;;;28.40;11.05;;;;;;;2.31;82.82;101985.53;5093164;28;20036;-76
2022/01/25 08:34:59;;;;;;;28.15;9.27;;;;;;;2.50;83.30;101986.81;5092589;28;20491;-76
2022/01/25 08:37:24;;;;;;;35.05;11.30;;;;;;;2.46;81.60;101985.34;5093266;28;20032;-76
2022/01/25 08:39:52;;;;;;;41.90;12.45;;;;;;;2.39;81.47;101988.47;5093219;28;20035;-77
2022/01/25 08:42:18;;;;;;;25.38;9.65;;;;;;;2.39;81.71;101996.44;5093813;28;20076;-75
2022/01/25 08:44:43;;;;;;;24.45;9.20;;;;;;;2.40;81.57;101992.81;5091584;28;20032;-76
2022/01/25 08:47:08;;;;;;;28.30;9.20;;;;;;;2.31;82.37;101988.19;5092711;28;20039;-75
2022/01/25 08:49:35;;;;;;;27.65;9.10;;;;;;;2.19;82.28;101993.53;5095126;28;20477;-75
2022/01/25 08:52:01;;;;;;;28.55;9.88;;;;;;;2.23;82.25;101995.88;5096600;28;20455;-75
2022/01/25 08:54:26;;;;;;;24.38;8.73;;;;;;;2.15;82.94;101992.91;5097613;28;20035;-78
2022/01/25 08:56:55;;;;;;;26.95;9.07;;;;;;;2.22;82.07;101995.97;5098378;28;20028;-77
2022/01/25 08:59:20;;;;;;;24.73;8.93;;;;;;;2.20;82.59;101996.09;5097768;28;20103;-77
2022/01/25 09:01:46;;;;;;;25.70;8.95;;;;;;;2.21;82.53;101996.94;5098125;28;20059;-77
2022/01/25 09:04:17;;;;;;;28.23;8.77;;;;;;;2.49;82.21;101998.44;5103453;28;20031;-80
2022/01/25 09:06:42;;;;;;;26.70;9.63;;;;;;;2.44;82.19;101999.63;5100641;28;20024;-77
2022/01/25 09:09:09;;;;;;;24.83;8.25;;;;;;;2.33;81.83;102001.38;5098326;28;20115;-77
2022/01/25 09:11:37;;;;;;;29.30;8.95;;;;;;;2.20;82.22;102001.41;5094997;28;20039;-77
2022/01/25 09:14:03;;;;;;;30.65;9.10;;;;;;;2.26;82.72;101995.66;5097397;28;20031;-77
2022/01/25 09:16:29;;;;;;;30.20;9.30;;;;;;;2.40;81.61;102002.63;5096498;28;20047;-77
2022/01/25 09:18:55;;;;;;;28.25;9.70;;;;;;;2.51;81.15;101999.19;5097283;28;20462;-78
2022/01/25 09:21:20;;;;;;;27.20;9.82;;;;;;;2.49;83.17;102001.09;5097237;28;20455;-77
2022/01/25 09:23:46;;;;;;;34.63;11.40;;;;;;;2.49;81.88;102001.09;5096145;28;20032;-78
2022/01/25 09:26:12;;;;;;;27.88;10.75;;;;;;;2.47;81.87;102008.34;5097812;28;20115;-77
2022/01/25 09:28:38;;;;;;;28.73;10.85;;;;;;;2.67;80.81;102010.38;5096999;28;20111;-77
2022/01/25 09:31:03;;;;;;;28.73;9.35;;;;;;;2.49;81.42;102020.56;5094591;28;20040;-77
2022/01/25 09:33:29;;;;;;;28.80;9.00;;;;;;;2.47;80.77;102018.97;5096842;28;20035;-77
2022/01/25 09:35:55;;;;;;;;;;;;;;;2.30;80.90;102023.72;5094463;28;20040;-77
2022/01/25 09:38:22;;;;;;;36.33;11.10;;;;;;;2.49;80.33;102022.38;5094900;28;19914;-80
2022/01/25 09:40:48;;;;;;;32.22;11.35;;;;;;;2.46;80.63;102022.59;5098999;28;20024;-78
2022/01/25 09:43:14;;;;;;;34.85;11.13;;;;;;;2.41;80.97;102020.28;5100059;28;20028;-79
2022/01/25 09:45:40;;;;;;;30.20;10.15;;;;;;;2.33;81.39;102020.81;5100046;28;20086;-79
2022/01/25 09:48:07;;;;;;;30.48;11.15;;;;;;;2.34;81.76;102003.06;5097058;28;20138;-79
2022/01/25 09:50:34;;;;;;;29.52;10.85;;;;;;;2.46;81.63;102015.47;5097698;28;20042;-77
2022/01/25 09:53:00;;;;;;;34.70;10.77;;;;;;;2.59;80.95;102016.25;5095754;28;20027;-77
2022/01/25 09:55:29;;;;;;;31.38;11.75;;;;;;;2.68;80.51;102012.06;5095639;28;20040;-77
2022/01/25 09:57:55;;;;;;;33.28;12.85;;;;;;;2.72;79.77;102016.16;5094606;28;20099;-78
2022/01/25 10:00:23;;;;;;;31.58;10.55;;;;;;;2.56;80.46;102021.78;5094659;28;20032;-78
2022/01/25 10:03:27;;;;;;;30.17;11.60;;;;;;;2.58;79.79;102016.34;5094990;28;20111;-77
2022/01/25 10:05:46;;;;;;;33.72;11.13;;;;;;;2.58;80.48;102021.69;5091293;28;20034;-77
2022/01/25 10:08:20;;;;;;;30.45;10.23;;;;;;;2.53;80.55;102030.00;5095081;28;20189;-77
2022/01/25 10:10:57;;;;;;;32.22;10.90;;;;;;;2.57;80.70;102027.97;5094423;28;20131;-78
2022/01/25 10:13:31;;;;;;;28.42;10.30;;;;;;;2.33;80.99;102038.63;5095617;28;20035;-77
2022/01/25 10:16:09;;;;;;;27.13;9.55;;;;;;;2.41;80.96;102033.56;5095356;28;20432;-77
2022/01/25 10:18:38;;;;;;;33.85;12.25;;;;;;;2.31;81.11;102036.06;5095492;28;20035;-78
2022/01/25 10:21:10;;;;;;;30.95;11.90;;;;;;;2.49;80.36;102035.69;5094664;28;20028;-77
2022/01/25 10:23:35;;;;;;;33.70;9.90;;;;;;;2.43;80.82;102034.31;5094804;28;20049;-77
2022/01/25 10:26:02;;;;;;;31.90;10.40;;;;;;;2.47;80.85;102030.47;5095576;28;20028;-77
2022/01/25 10:28:30;;;;;;;29.30;10.48;;;;;;;2.57;80.56;102028.81;5094674;28;20251;-78
2022/01/25 10:31:02;;;;;;;36.45;11.52;;;;;;;2.54;80.81;102025.53;5093699;28;20134;-78
2022/01/25 10:33:33;;;;;;;30.25;11.30;;;;;;;2.61;80.27;102034.75;5095342;28;20096;-78
2022/01/25 10:36:10;;;;;;;33.50;11.07;;;;;;;2.67;79.86;102032.50;5094210;28;20139;-77
2022/01/25 10:38:36;;;;;;;37.17;12.38;;;;;;;2.59;80.38;102031.38;5093039;28;20382;-77
2022/01/25 10:41:01;;;;;;;29.33;10.93;;;;;;;2.60;79.57;102035.72;5094384;28;20020;-76
2022/01/25 10:43:28;;;;;;;30.13;10.73;;;;;;;2.63;79.21;102032.84;5094337;28;20476;-76
2022/01/25 10:46:08;;;;;;;30.75;10.65;;;;;;;2.66;80.36;102032.63;5094788;28;20031;-77
2022/01/25 10:48:35;;;;;;;36.70;12.80;;;;;;;2.55;80.25;102032.53;5094214;28;20043;-77
2022/01/25 10:51:12;;;;;;;31.85;11.10;;;;;;;2.62;79.72;102032.00;5094382;28;20032;-77
2022/01/25 10:53:38;;;;;;;31.33;9.55;;;;;;;2.83;79.08;102026.03;5094682;28;20173;-77
2022/01/25 10:56:05;;;;;;;32.60;9.88;;;;;;;2.85;79.76;102032.09;5095108;28;20465;-77
2022/01/25 10:58:39;;;;;;;40.45;13.70;;;;;;;2.52;80.14;102038.94;5093622;28;20043;-76
2022/01/25 11:01:05;;;;;;;29.65;10.27;;;;;;;2.44;79.72;102030.69;5095391;28;20032;-78
2022/01/25 11:03:37;;;;;;;27.17;10.60;;;;;;;2.56;79.84;102024.44;5095874;28;20036;-77
2022/01/25 11:06:09;;;;;;;30.27;10.80;;;;;;;2.51;79.84;102023.13;5095409;28;20351;-80
2022/01/25 11:08:38;;;;;;;31.77;10.35;;;;;;;2.67;79.58;102021.00;5094887;28;20137;-78
2022/01/25 11:11:06;;;;;;;30.45;10.68;;;;;;;2.70;79.41;102024.25;5094752;28;20436;-77
2022/01/25 11:16:02;;;;;;;33.65;12.05;;;;;;;2.67;79.81;102024.53;5094298;28;20115;-77
2022/01/25 11:18:30;;;;;;;32.25;10.35;;;;;;;2.56;79.84;102019.13;5095438;28;20032;-78
2022/01/25 11:20:57;;;;;;;42.70;11.77;;;;;;;2.56;79.48;102020.94;5096978;28;20062;-78
2022/01/25 11:23:23;;;;;;;30.73;10.82;;;;;;;2.64;79.15;102021.22;5094328;28;20362;-76
2022/01/25 11:25:49;;;;;;;33.33;11.38;;;;;;;2.72;78.70;102019.69;5093637;28;20060;-76
2022/01/25 11:28:15;;;;;;;30.88;11.65;;;;;;;2.60;79.58;102017.09;5092061;28;20062;-76
2022/01/25 11:30:42;;;;;;;30.52;10.15;;;;;;;2.75;79.70;102021.25;5092298;28;20052;-76
2022/01/25 11:33:11;;;;;;;27.08;9.43;;;;;;;2.70;79.79;102021.59;5093087;28;20031;-76
2022/01/25 11:35:38;;;;;;;27.83;9.45;;;;;;;2.61;79.70;102016.97;5093370;28;20035;-77
2022/01/25 11:38:06;;;;;;;32.22;9.77;;;;;;;2.64;80.18;102018.56;5093439;28;20024;-77
2022/01/25 11:40:37;;;;;;;33.15;9.98;;;;;;;2.51;80.99;102015.94;5092174;28;20031;-77
2022/01/25 11:43:06;;;;;;;22.42;9.32;;;;;;;2.51;80.71;102020.47;5092550;28;20024;-76
2022/01/25 11:45:35;;;;;;;32.75;11.23;;;;;;;2.53;82.16;102015.84;5093294;28;20024;-77
2022/01/25 11:48:00;;;;;;;29.70;9.70;;;;;;;2.60;80.30;102014.44;5093571;28;20033;-76
2022/01/25 11:50:31;;;;;;;29.20;10.90;;;;;;;2.66;81.17;102017.50;5093406;28;20024;-77
2022/01/25 11:53:05;;;;;;;33.70;10.48;;;;;;;2.43;80.68;102013.03;5093984;28;20032;-78
2022/01/25 11:55:33;;;;;;;33.92;10.65;;;;;;;2.56;80.07;102016.47;5093715;28;20442;-78
2022/01/25 11:58:03;;;;;;;27.90;8.93;;;;;;;2.54;80.25;102017.53;5093905;28;20390;-77
2022/01/25 12:00:52;;;;;;;31.17;11.55;;;;;;;2.50;80.91;102011.63;5092616;28;20040;-78
2022/01/25 12:03:23;;;;;;;29.17;10.57;;;;;;;2.54;80.64;102007.75;5093600;28;20028;-78
2022/01/25 12:06:06;;;;;;;29.30;10.85;;;;;;;2.62;79.98;102005.38;5093882;28;20028;-78
2022/01/25 12:09:09;;;;;;;31.30;11.80;;;;;;;2.56;80.02;102007.63;5093514;28;20024;-78
2022/01/25 12:11:42;;;;;;;33.42;11.73;;;;;;;2.60;80.52;102006.44;5093969;28;20044;-78
2022/01/25 12:14:21;;;;;;;37.47;11.38;;;;;;;2.68;80.00;102012.06;5094984;28;20067;-78
2022/01/25 12:16:54;;;;;;;31.73;10.55;;;;;;;2.70;79.60;102004.78;5094156;28;20032;-78
2022/01/25 12:19:51;;;;;;;31.40;11.02;;;;;;;2.73;78.73;102004.56;5096394;28;20039;-79
2022/01/25 12:22:26;;;;;;;26.52;9.95;;;;;;;2.74;79.33;102006.25;5090660;28;20035;-78
2022/01/25 12:25:29;;;;;;;27.35;10.52;;;;;;;2.81;79.46;101991.53;5099949;28;20478;-77
2022/01/25 12:28:01;;;;;;;29.42;10.80;;;;;;;2.68;79.84;101996.09;5098660;28;20051;-77
2022/01/25 12:30:44;;;;;;;30.20;10.38;;;;;;;2.64;80.36;101995.47;5098694;28;20032;-77
2022/01/25 12:33:24;;;;;;;29.90;10.75;;;;;;;2.62;80.44;101991.22;5098191;28;20099;-78
2022/01/25 12:35:52;;;;;;;28.00;10.60;;;;;;;2.68;80.09;101977.47;5100132;28;20020;-78
2022/01/25 12:38:31;;;;;;;29.02;9.85;;;;;;;2.89;79.30;101980.28;5098710;28;20028;-78
2022/01/25 12:41:00;;;;;;;30.75;10.85;;;;;;;2.97;78.68;101983.22;5097973;28;20024;-78
2022/01/25 12:43:34;;;;;;;27.58;9.98;;;;;;;2.91;78.33;101975.69;5098267;28;20052;-79
2022/01/25 12:46:07;;;;;;;29.02;9.85;;;;;;;2.75;79.19;101973.34;5096976;28;20067;-78
2022/01/25 12:48:42;;;;;;;30.30;11.07;;;;;;;2.59;79.84;101981.66;5095486;28;20115;-78
2022/01/25 12:51:10;;;;;;;32.60;11.00;;;;;;;2.64;79.88;101973.34;5095414;28;20032;-78
2022/01/25 12:53:38;;;;;;;29.80;10.88;;;;;;;2.68;79.87;101972.16;5097094;28;20036;-77
2022/01/25 12:56:10;;;;;;;32.22;10.80;;;;;;;2.79;80.05;101962.38;5097010;28;20032;-77
2022/01/25 12:58:37;;;;;;;35.35;11.15;;;;;;;2.73;79.69;101961.97;5094789;28;20048;-77
2022/01/25 13:01:10;;;;;;;30.25;11.20;;;;;;;2.81;79.45;101962.25;5096849;28;20117;-77
2022/01/25 13:03:40;;;;;;;31.10;11.75;;;;;;;2.94;79.76;101955.00;5096660;28;20505;-77
2022/01/25 13:06:12;;;;;;;40.72;12.82;;;;;;;2.83;78.76;101951.50;5095825;28;20032;-77
2022/01/25 13:08:58;;;;;;;28.80;10.35;;;;;;;2.86;78.60;101945.94;5094718;28;20028;-77
2022/01/25 13:11:57;;;;;;;35.67;12.43;;;;;;;3.06;77.82;101943.41;5094933;28;20091;-77
2022/01/25 13:17:03;;;;;;;27.05;11.02;;;;;;;2.95;78.62;101940.75;5095692;28;20088;-77
2022/01/25 13:19:38;;;;;;;34.20;11.52;;;;;;;2.91;78.36;101939.28;5094911;28;20082;-77